sensor_id;sensor_type;location;lat;lon;timestamp;P1;durP1;ratioP1;P2;durP2;ratioP2
13335;SDS011;6737;51.480;11.962;2024-01-15T00:02:07;16.67;;;12.47;;
13335;SDS011;6737;51.480;11.962;2024-01-15T00:04:40;16.00;;;11.87;;
13335;SDS011;6737;51.480;11.962;2024-01-15T00:07:07;19.57;;;12.93;;
13335;SDS011;6737;51.480;11.962;2024-01-15T00:09:33;15.67;;;11.97;;
13335;SDS011;6737;51.480;11.962;2024-01-15T00:12:00;16.33;;;12.80;;
13335;SDS011;6737;51.480;11.962;2024-01-15T00:14:27;17.60;;;13.10;;
13335;SDS011;6737;51.480;11.962;2024-01-15T00:16:53;17.90;;;12.63;;
13335;SDS011;6737;51.480;11.962;2024-01-15T00:19:20;17.07;;;12.20;;
13335;SDS011;6737;51.480;11.962;2024-01-15T00:21:47;16.27;;;12.77;;
13335;SDS011;6737;51.480;11.962;2024-01-15T00:24:13;17.23;;;13.13;;
13335;SDS011;6737;51.480;11.962;2024-01-15T00:26:39;16.23;;;12.63;;
13335;SDS011;6737;51.480;11.962;2024-01-15T00:29:08;17.63;;;12.83;;
13335;SDS011;6737;51.480;11.962;2024-01-15T00:31:34;18.37;;;13.03;;
13335;SDS011;6737;51.480;11.962;2024-01-15T00:34:00;16.37;;;12.37;;
13335;SDS011;6737;51.480;11.962;2024-01-15T00:36:26;15.90;;;12.10;;
13335;SDS011;6737;51.480;11.962;2024-01-15T00:38:52;18.23;;;12.23;;
13335;SDS011;6737;51.480;11.962;2024-01-15T00:41:19;16.83;;;12.40;;
13335;SDS011;6737;51.480;11.962;2024-01-15T00:43:45;17.60;;;12.67;;
13335;SDS011;6737;51.480;11.962;2024-01-15T00:46:11;16.93;;;12.50;;
13335;SDS011;6737;51.480;11.962;2024-01-15T00:48:37;15.17;;;11.63;;
13335;SDS011;6737;51.480;11.962;2024-01-15T00:51:04;17.83;;;12.63;;
13335;SDS011;6737;51.480;11.962;2024-01-15T00:53:30;14.93;;;11.37;;
13335;SDS011;6737;51.480;11.962;2024-01-15T00:55:56;15.47;;;11.47;;
13335;SDS011;6737;51.480;11.962;2024-01-15T00:58:22;15.10;;;11.33;;
13335;SDS011;6737;51.480;11.962;2024-01-15T01:00:48;15.93;;;11.53;;
13335;SDS011;6737;51.480;11.962;2024-01-15T01:03:14;16.57;;;11.90;;
13335;SDS011;6737;51.480;11.962;2024-01-15T01:05:39;14.67;;;11.07;;
13335;SDS011;6737;51.480;11.962;2024-01-15T01:08:05;15.47;;;11.47;;
13335;SDS011;6737;51.480;11.962;2024-01-15T01:10:31;16.67;;;11.97;;
13335;SDS011;6737;51.480;11.962;2024-01-15T01:12:58;15.10;;;11.07;;
13335;SDS011;6737;51.480;11.962;2024-01-15T01:15:23;16.90;;;11.60;;
13335;SDS011;6737;51.480;11.962;2024-01-15T01:17:49;14.40;;;10.97;;
13335;SDS011;6737;51.480;11.962;2024-01-15T01:20:15;14.53;;;11.30;;
13335;SDS011;6737;51.480;11.962;2024-01-15T01:22:41;16.20;;;11.83;;
13335;SDS011;6737;51.480;11.962;2024-01-15T01:25:07;16.07;;;11.83;;
13335;SDS011;6737;51.480;11.962;2024-01-15T01:27:34;17.27;;;11.73;;
13335;SDS011;6737;51.480;11.962;2024-01-15T01:30:00;17.13;;;12.53;;
13335;SDS011;6737;51.480;11.962;2024-01-15T01:32:26;16.47;;;12.07;;
13335;SDS011;6737;51.480;11.962;2024-01-15T01:34:52;16.97;;;12.43;;
13335;SDS011;6737;51.480;11.962;2024-01-15T01:37:18;17.80;;;12.40;;
13335;SDS011;6737;51.480;11.962;2024-01-15T01:39:43;16.50;;;12.03;;
13335;SDS011;6737;51.480;11.962;2024-01-15T01:42:09;16.43;;;12.10;;
13335;SDS011;6737;51.480;11.962;2024-01-15T01:44:38;16.63;;;12.27;;
13335;SDS011;6737;51.480;11.962;2024-01-15T01:47:03;16.77;;;12.47;;
13335;SDS011;6737;51.480;11.962;2024-01-15T01:49:30;16.90;;;12.20;;
13335;SDS011;6737;51.480;11.962;2024-01-15T01:51:57;16.23;;;12.07;;
13335;SDS011;6737;51.480;11.962;2024-01-15T01:54:26;17.83;;;12.97;;
13335;SDS011;6737;51.480;11.962;2024-01-15T01:56:56;14.77;;;11.20;;
13335;SDS011;6737;51.480;11.962;2024-01-15T01:59:23;17.47;;;12.37;;
13335;SDS011;6737;51.480;11.962;2024-01-15T02:01:52;16.90;;;12.37;;
13335;SDS011;6737;51.480;11.962;2024-01-15T02:04:23;17.20;;;11.93;;
13335;SDS011;6737;51.480;11.962;2024-01-15T02:06:50;15.50;;;12.03;;
13335;SDS011;6737;51.480;11.962;2024-01-15T02:09:16;18.27;;;12.63;;
13335;SDS011;6737;51.480;11.962;2024-01-15T02:11:43;18.33;;;12.70;;
13335;SDS011;6737;51.480;11.962;2024-01-15T02:14:11;17.00;;;12.07;;
13335;SDS011;6737;51.480;11.962;2024-01-15T02:16:37;17.00;;;12.50;;
13335;SDS011;6737;51.480;11.962;2024-01-15T02:19:03;16.07;;;12.40;;
13335;SDS011;6737;51.480;11.962;2024-01-15T02:21:29;18.23;;;12.70;;
13335;SDS011;6737;51.480;11.962;2024-01-15T02:23:56;17.17;;;12.27;;
13335;SDS011;6737;51.480;11.962;2024-01-15T02:26:22;18.17;;;12.97;;
13335;SDS011;6737;51.480;11.962;2024-01-15T02:28:48;17.13;;;12.43;;
13335;SDS011;6737;51.480;11.962;2024-01-15T02:31:15;16.87;;;12.27;;
13335;SDS011;6737;51.480;11.962;2024-01-15T02:33:42;18.30;;;12.53;;
13335;SDS011;6737;51.480;11.962;2024-01-15T02:36:09;16.80;;;11.93;;
13335;SDS011;6737;51.480;11.962;2024-01-15T02:38:34;17.10;;;12.10;;
13335;SDS011;6737;51.480;11.962;2024-01-15T02:41:00;15.70;;;11.73;;
13335;SDS011;6737;51.480;11.962;2024-01-15T02:43:26;15.30;;;11.13;;
13335;SDS011;6737;51.480;11.962;2024-01-15T02:45:52;15.87;;;11.27;;
13335;SDS011;6737;51.480;11.962;2024-01-15T02:48:17;15.27;;;11.40;;
13335;SDS011;6737;51.480;11.962;2024-01-15T02:50:43;15.93;;;11.23;;
13335;SDS011;6737;51.480;11.962;2024-01-15T02:53:09;14.97;;;11.03;;
13335;SDS011;6737;51.480;11.962;2024-01-15T02:55:34;16.23;;;11.17;;
13335;SDS011;6737;51.480;11.962;2024-01-15T02:58:00;14.50;;;11.17;;
13335;SDS011;6737;51.480;11.962;2024-01-15T03:00:27;16.33;;;11.00;;
13335;SDS011;6737;51.480;11.962;2024-01-15T03:02:53;15.83;;;11.63;;
13335;SDS011;6737;51.480;11.962;2024-01-15T03:05:19;16.43;;;11.33;;
13335;SDS011;6737;51.480;11.962;2024-01-15T03:07:45;15.00;;;11.40;;
13335;SDS011;6737;51.480;11.962;2024-01-15T03:10:11;16.37;;;11.50;;
13335;SDS011;6737;51.480;11.962;2024-01-15T03:12:36;16.43;;;11.50;;
13335;SDS011;6737;51.480;11.962;2024-01-15T03:15:02;17.73;;;11.33;;
13335;SDS011;6737;51.480;11.962;2024-01-15T03:17:28;15.93;;;11.87;;
13335;SDS011;6737;51.480;11.962;2024-01-15T03:19:54;16.40;;;12.13;;
13335;SDS011;6737;51.480;11.962;2024-01-15T03:22:20;17.17;;;11.70;;
13335;SDS011;6737;51.480;11.962;2024-01-15T03:24:45;16.07;;;11.50;;
13335;SDS011;6737;51.480;11.962;2024-01-15T03:27:11;17.60;;;11.90;;
13335;SDS011;6737;51.480;11.962;2024-01-15T03:29:37;16.73;;;11.97;;
13335;SDS011;6737;51.480;11.962;2024-01-15T03:32:03;18.10;;;12.53;;
13335;SDS011;6737;51.480;11.962;2024-01-15T03:34:29;16.67;;;11.93;;
13335;SDS011;6737;51.480;11.962;2024-01-15T03:36:55;16.53;;;11.57;;
13335;SDS011;6737;51.480;11.962;2024-01-15T03:39:21;17.13;;;12.03;;
13335;SDS011;6737;51.480;11.962;2024-01-15T03:41:46;17.67;;;12.17;;
13335;SDS011;6737;51.480;11.962;2024-01-15T03:44:12;16.57;;;11.53;;
13335;SDS011;6737;51.480;11.962;2024-01-15T03:46:38;16.20;;;11.40;;
13335;SDS011;6737;51.480;11.962;2024-01-15T03:49:04;15.77;;;11.63;;
13335;SDS011;6737;51.480;11.962;2024-01-15T03:51:29;15.30;;;11.03;;
13335;SDS011;6737;51.480;11.962;2024-01-15T03:53:55;16.47;;;11.30;;
13335;SDS011;6737;51.480;11.962;2024-01-15T03:56:21;16.03;;;11.37;;
13335;SDS011;6737;51.480;11.962;2024-01-15T03:58:47;15.33;;;11.00;;
13335;SDS011;6737;51.480;11.962;2024-01-15T04:01:12;15.63;;;10.93;;
13335;SDS011;6737;51.480;11.962;2024-01-15T04:03:38;14.77;;;10.50;;
13335;SDS011;6737;51.480;11.962;2024-01-15T04:06:04;15.37;;;10.27;;
13335;SDS011;6737;51.480;11.962;2024-01-15T04:08:30;15.80;;;10.07;;
13335;SDS011;6737;51.480;11.962;2024-01-15T04:10:56;15.77;;;10.37;;
13335;SDS011;6737;51.480;11.962;2024-01-15T04:13:22;12.73;;;9.70;;
13335;SDS011;6737;51.480;11.962;2024-01-15T04:15:47;12.93;;;8.93;;
13335;SDS011;6737;51.480;11.962;2024-01-15T04:18:15;12.87;;;9.23;;
13335;SDS011;6737;51.480;11.962;2024-01-15T04:20:41;13.30;;;9.37;;
13335;SDS011;6737;51.480;11.962;2024-01-15T04:23:07;12.07;;;8.63;;
13335;SDS011;6737;51.480;11.962;2024-01-15T04:25:32;12.50;;;8.73;;
13335;SDS011;6737;51.480;11.962;2024-01-15T04:27:58;13.07;;;9.50;;
13335;SDS011;6737;51.480;11.962;2024-01-15T04:30:24;12.47;;;9.20;;
13335;SDS011;6737;51.480;11.962;2024-01-15T04:32:50;11.27;;;8.70;;
13335;SDS011;6737;51.480;11.962;2024-01-15T04:35:15;13.50;;;8.73;;
13335;SDS011;6737;51.480;11.962;2024-01-15T04:37:41;12.30;;;8.93;;
13335;SDS011;6737;51.480;11.962;2024-01-15T04:40:08;11.93;;;9.03;;
13335;SDS011;6737;51.480;11.962;2024-01-15T04:42:35;13.43;;;9.00;;
13335;SDS011;6737;51.480;11.962;2024-01-15T04:45:00;11.80;;;8.87;;
13335;SDS011;6737;51.480;11.962;2024-01-15T04:47:26;12.57;;;8.43;;
13335;SDS011;6737;51.480;11.962;2024-01-15T04:49:52;11.60;;;8.60;;
13335;SDS011;6737;51.480;11.962;2024-01-15T04:52:18;12.97;;;8.73;;
13335;SDS011;6737;51.480;11.962;2024-01-15T04:54:43;12.13;;;9.00;;
13335;SDS011;6737;51.480;11.962;2024-01-15T04:57:09;10.77;;;8.10;;
13335;SDS011;6737;51.480;11.962;2024-01-15T04:59:35;11.17;;;8.00;;
13335;SDS011;6737;51.480;11.962;2024-01-15T05:02:01;10.90;;;7.93;;
13335;SDS011;6737;51.480;11.962;2024-01-15T05:04:26;10.93;;;7.50;;
13335;SDS011;6737;51.480;11.962;2024-01-15T05:06:53;11.20;;;7.13;;
13335;SDS011;6737;51.480;11.962;2024-01-15T05:09:19;10.97;;;7.30;;
13335;SDS011;6737;51.480;11.962;2024-01-15T05:11:44;11.40;;;7.67;;
13335;SDS011;6737;51.480;11.962;2024-01-15T05:14:10;9.47;;;7.10;;
13335;SDS011;6737;51.480;11.962;2024-01-15T05:16:39;10.40;;;7.10;;
13335;SDS011;6737;51.480;11.962;2024-01-15T05:19:11;9.67;;;6.63;;
13335;SDS011;6737;51.480;11.962;2024-01-15T05:21:37;9.13;;;7.07;;
13335;SDS011;6737;51.480;11.962;2024-01-15T05:24:03;9.70;;;7.00;;
13335;SDS011;6737;51.480;11.962;2024-01-15T05:26:29;9.43;;;7.40;;
13335;SDS011;6737;51.480;11.962;2024-01-15T05:28:54;10.80;;;7.73;;
13335;SDS011;6737;51.480;11.962;2024-01-15T05:31:20;11.17;;;8.13;;
13335;SDS011;6737;51.480;11.962;2024-01-15T05:33:46;11.20;;;7.73;;
13335;SDS011;6737;51.480;11.962;2024-01-15T05:36:12;10.50;;;7.77;;
13335;SDS011;6737;51.480;11.962;2024-01-15T05:38:38;10.47;;;7.90;;
13335;SDS011;6737;51.480;11.962;2024-01-15T05:41:04;10.50;;;7.33;;
13335;SDS011;6737;51.480;11.962;2024-01-15T05:43:30;11.40;;;7.40;;
13335;SDS011;6737;51.480;11.962;2024-01-15T05:45:56;9.90;;;6.83;;
13335;SDS011;6737;51.480;11.962;2024-01-15T05:48:22;10.57;;;6.93;;
13335;SDS011;6737;51.480;11.962;2024-01-15T05:50:48;10.60;;;6.67;;
13335;SDS011;6737;51.480;11.962;2024-01-15T05:53:13;10.33;;;7.10;;
13335;SDS011;6737;51.480;11.962;2024-01-15T05:55:39;10.20;;;7.00;;
13335;SDS011;6737;51.480;11.962;2024-01-15T05:58:05;11.17;;;6.63;;
13335;SDS011;6737;51.480;11.962;2024-01-15T06:00:32;9.77;;;7.20;;
13335;SDS011;6737;51.480;11.962;2024-01-15T06:03:00;10.53;;;6.50;;
13335;SDS011;6737;51.480;11.962;2024-01-15T06:05:26;10.37;;;6.93;;
13335;SDS011;6737;51.480;11.962;2024-01-15T06:07:52;9.67;;;6.93;;
13335;SDS011;6737;51.480;11.962;2024-01-15T06:10:18;7.90;;;6.20;;
13335;SDS011;6737;51.480;11.962;2024-01-15T06:12:44;9.13;;;6.70;;
13335;SDS011;6737;51.480;11.962;2024-01-15T06:15:10;8.70;;;6.13;;
13335;SDS011;6737;51.480;11.962;2024-01-15T06:17:37;9.23;;;6.87;;
13335;SDS011;6737;51.480;11.962;2024-01-15T06:20:03;10.13;;;6.40;;
13335;SDS011;6737;51.480;11.962;2024-01-15T06:22:29;11.17;;;6.57;;
13335;SDS011;6737;51.480;11.962;2024-01-15T06:24:55;9.50;;;6.57;;
13335;SDS011;6737;51.480;11.962;2024-01-15T06:27:21;9.13;;;6.53;;
13335;SDS011;6737;51.480;11.962;2024-01-15T06:29:47;10.33;;;6.40;;
13335;SDS011;6737;51.480;11.962;2024-01-15T06:32:13;9.97;;;6.37;;
13335;SDS011;6737;51.480;11.962;2024-01-15T06:34:39;9.03;;;6.13;;
13335;SDS011;6737;51.480;11.962;2024-01-15T06:37:05;9.77;;;6.23;;
13335;SDS011;6737;51.480;11.962;2024-01-15T06:39:31;10.90;;;6.80;;
13335;SDS011;6737;51.480;11.962;2024-01-15T06:41:57;8.00;;;6.20;;
13335;SDS011;6737;51.480;11.962;2024-01-15T06:44:23;9.87;;;6.20;;
13335;SDS011;6737;51.480;11.962;2024-01-15T06:46:49;8.93;;;6.13;;
13335;SDS011;6737;51.480;11.962;2024-01-15T06:49:15;9.90;;;6.37;;
13335;SDS011;6737;51.480;11.962;2024-01-15T06:51:41;8.37;;;6.30;;
13335;SDS011;6737;51.480;11.962;2024-01-15T06:54:07;9.27;;;6.37;;
13335;SDS011;6737;51.480;11.962;2024-01-15T06:56:33;10.23;;;6.67;;
13335;SDS011;6737;51.480;11.962;2024-01-15T06:58:59;9.43;;;6.60;;
13335;SDS011;6737;51.480;11.962;2024-01-15T07:01:25;10.87;;;6.57;;
13335;SDS011;6737;51.480;11.962;2024-01-15T07:03:51;9.27;;;6.70;;
13335;SDS011;6737;51.480;11.962;2024-01-15T07:06:16;8.67;;;6.73;;
13335;SDS011;6737;51.480;11.962;2024-01-15T07:08:42;9.30;;;6.60;;
13335;SDS011;6737;51.480;11.962;2024-01-15T07:11:08;9.97;;;6.53;;
13335;SDS011;6737;51.480;11.962;2024-01-15T07:13:36;8.70;;;6.43;;
13335;SDS011;6737;51.480;11.962;2024-01-15T07:16:03;10.10;;;6.70;;
13335;SDS011;6737;51.480;11.962;2024-01-15T07:18:29;9.00;;;6.83;;
13335;SDS011;6737;51.480;11.962;2024-01-15T07:20:55;9.00;;;6.73;;
13335;SDS011;6737;51.480;11.962;2024-01-15T07:23:21;8.63;;;6.63;;
13335;SDS011;6737;51.480;11.962;2024-01-15T07:25:47;9.67;;;7.03;;
13335;SDS011;6737;51.480;11.962;2024-01-15T07:28:12;10.30;;;7.30;;
13335;SDS011;6737;51.480;11.962;2024-01-15T07:30:38;10.47;;;7.13;;
13335;SDS011;6737;51.480;11.962;2024-01-15T07:33:05;8.80;;;7.07;;
13335;SDS011;6737;51.480;11.962;2024-01-15T07:35:31;9.40;;;6.63;;
13335;SDS011;6737;51.480;11.962;2024-01-15T07:37:57;8.67;;;6.57;;
13335;SDS011;6737;51.480;11.962;2024-01-15T07:40:23;10.77;;;6.93;;
13335;SDS011;6737;51.480;11.962;2024-01-15T07:42:50;8.63;;;6.53;;
13335;SDS011;6737;51.480;11.962;2024-01-15T07:45:16;9.87;;;7.07;;
13335;SDS011;6737;51.480;11.962;2024-01-15T07:47:42;10.30;;;6.83;;
13335;SDS011;6737;51.480;11.962;2024-01-15T07:50:09;10.30;;;7.37;;
13335;SDS011;6737;51.480;11.962;2024-01-15T07:52:35;10.00;;;7.13;;
13335;SDS011;6737;51.480;11.962;2024-01-15T07:55:01;9.60;;;6.53;;
13335;SDS011;6737;51.480;11.962;2024-01-15T07:57:29;10.53;;;7.37;;
13335;SDS011;6737;51.480;11.962;2024-01-15T07:59:54;9.37;;;6.97;;
13335;SDS011;6737;51.480;11.962;2024-01-15T08:02:20;9.77;;;7.20;;
13335;SDS011;6737;51.480;11.962;2024-01-15T08:04:47;9.47;;;6.63;;
13335;SDS011;6737;51.480;11.962;2024-01-15T08:07:13;10.87;;;7.07;;
13335;SDS011;6737;51.480;11.962;2024-01-15T08:09:39;9.30;;;7.20;;
13335;SDS011;6737;51.480;11.962;2024-01-15T08:12:05;11.53;;;7.03;;
13335;SDS011;6737;51.480;11.962;2024-01-15T08:14:31;10.97;;;7.30;;
13335;SDS011;6737;51.480;11.962;2024-01-15T08:16:57;9.37;;;6.83;;
13335;SDS011;6737;51.480;11.962;2024-01-15T08:19:23;9.57;;;6.87;;
13335;SDS011;6737;51.480;11.962;2024-01-15T08:21:49;9.27;;;7.20;;
13335;SDS011;6737;51.480;11.962;2024-01-15T08:24:15;10.63;;;6.83;;
13335;SDS011;6737;51.480;11.962;2024-01-15T08:26:42;10.03;;;6.70;;
13335;SDS011;6737;51.480;11.962;2024-01-15T08:29:08;11.30;;;6.77;;
13335;SDS011;6737;51.480;11.962;2024-01-15T08:31:34;11.27;;;7.20;;
13335;SDS011;6737;51.480;11.962;2024-01-15T08:34:00;9.27;;;6.70;;
13335;SDS011;6737;51.480;11.962;2024-01-15T08:36:27;10.43;;;6.53;;
13335;SDS011;6737;51.480;11.962;2024-01-15T08:38:55;10.77;;;6.43;;
13335;SDS011;6737;51.480;11.962;2024-01-15T08:41:21;9.40;;;6.53;;
13335;SDS011;6737;51.480;11.962;2024-01-15T08:43:47;9.00;;;6.67;;
13335;SDS011;6737;51.480;11.962;2024-01-15T08:46:13;11.30;;;6.90;;
13335;SDS011;6737;51.480;11.962;2024-01-15T08:48:39;9.40;;;6.40;;
13335;SDS011;6737;51.480;11.962;2024-01-15T08:51:05;9.40;;;6.33;;
13335;SDS011;6737;51.480;11.962;2024-01-15T08:53:31;9.70;;;6.80;;
13335;SDS011;6737;51.480;11.962;2024-01-15T08:55:57;9.10;;;6.70;;
13335;SDS011;6737;51.480;11.962;2024-01-15T08:58:23;12.70;;;7.30;;
13335;SDS011;6737;51.480;11.962;2024-01-15T09:00:50;9.20;;;6.40;;
13335;SDS011;6737;51.480;11.962;2024-01-15T09:03:16;9.90;;;6.63;;
13335;SDS011;6737;51.480;11.962;2024-01-15T09:05:42;9.30;;;6.70;;
13335;SDS011;6737;51.480;11.962;2024-01-15T09:08:08;10.57;;;6.70;;
13335;SDS011;6737;51.480;11.962;2024-01-15T09:10:35;10.60;;;6.80;;
13335;SDS011;6737;51.480;11.962;2024-01-15T09:13:01;8.97;;;6.90;;
13335;SDS011;6737;51.480;11.962;2024-01-15T09:15:28;10.03;;;6.53;;
13335;SDS011;6737;51.480;11.962;2024-01-15T09:17:54;9.17;;;6.80;;
13335;SDS011;6737;51.480;11.962;2024-01-15T09:20:22;9.17;;;6.73;;
13335;SDS011;6737;51.480;11.962;2024-01-15T09:22:49;8.93;;;6.47;;
13335;SDS011;6737;51.480;11.962;2024-01-15T09:25:14;9.50;;;6.50;;
13335;SDS011;6737;51.480;11.962;2024-01-15T09:27:40;9.73;;;6.73;;
13335;SDS011;6737;51.480;11.962;2024-01-15T09:30:07;9.03;;;6.03;;
13335;SDS011;6737;51.480;11.962;2024-01-15T09:32:33;9.77;;;6.33;;
13335;SDS011;6737;51.480;11.962;2024-01-15T09:34:59;9.47;;;6.37;;
13335;SDS011;6737;51.480;11.962;2024-01-15T09:37:25;7.97;;;5.73;;
13335;SDS011;6737;51.480;11.962;2024-01-15T09:39:51;12.37;;;6.90;;
13335;SDS011;6737;51.480;11.962;2024-01-15T09:42:17;10.97;;;6.60;;
13335;SDS011;6737;51.480;11.962;2024-01-15T09:44:44;9.83;;;6.07;;
13335;SDS011;6737;51.480;11.962;2024-01-15T09:47:11;8.40;;;6.20;;
13335;SDS011;6737;51.480;11.962;2024-01-15T09:49:38;8.40;;;6.23;;
13335;SDS011;6737;51.480;11.962;2024-01-15T09:52:06;9.50;;;6.00;;
13335;SDS011;6737;51.480;11.962;2024-01-15T09:54:33;9.47;;;6.23;;
13335;SDS011;6737;51.480;11.962;2024-01-15T09:57:02;9.63;;;6.30;;
13335;SDS011;6737;51.480;11.962;2024-01-15T09:59:29;9.10;;;6.03;;
13335;SDS011;6737;51.480;11.962;2024-01-15T10:01:56;9.03;;;6.40;;
13335;SDS011;6737;51.480;11.962;2024-01-15T10:04:24;9.83;;;6.40;;
13335;SDS011;6737;51.480;11.962;2024-01-15T10:06:50;11.13;;;6.40;;
13335;SDS011;6737;51.480;11.962;2024-01-15T10:09:17;9.73;;;5.93;;
13335;SDS011;6737;51.480;11.962;2024-01-15T10:11:43;8.33;;;6.13;;
13335;SDS011;6737;51.480;11.962;2024-01-15T10:14:10;9.23;;;5.90;;
13335;SDS011;6737;51.480;11.962;2024-01-15T10:16:40;9.17;;;5.60;;
13335;SDS011;6737;51.480;11.962;2024-01-15T10:19:07;7.73;;;5.60;;
13335;SDS011;6737;51.480;11.962;2024-01-15T10:21:34;8.77;;;5.73;;
13335;SDS011;6737;51.480;11.962;2024-01-15T10:24:00;8.83;;;5.93;;
13335;SDS011;6737;51.480;11.962;2024-01-15T10:26:28;9.70;;;6.10;;
13335;SDS011;6737;51.480;11.962;2024-01-15T10:28:54;9.03;;;6.03;;
13335;SDS011;6737;51.480;11.962;2024-01-15T10:31:20;9.90;;;6.00;;
13335;SDS011;6737;51.480;11.962;2024-01-15T10:33:47;8.87;;;6.10;;
13335;SDS011;6737;51.480;11.962;2024-01-15T10:36:14;8.50;;;6.20;;
13335;SDS011;6737;51.480;11.962;2024-01-15T10:38:42;8.27;;;5.60;;
13335;SDS011;6737;51.480;11.962;2024-01-15T10:41:09;8.97;;;5.90;;
13335;SDS011;6737;51.480;11.962;2024-01-15T10:43:35;9.37;;;6.00;;
13335;SDS011;6737;51.480;11.962;2024-01-15T10:46:01;8.33;;;6.10;;
13335;SDS011;6737;51.480;11.962;2024-01-15T10:48:28;11.03;;;6.00;;
13335;SDS011;6737;51.480;11.962;2024-01-15T10:50:56;7.67;;;5.47;;
13335;SDS011;6737;51.480;11.962;2024-01-15T10:53:23;9.90;;;6.10;;
13335;SDS011;6737;51.480;11.962;2024-01-15T10:55:54;9.67;;;5.87;;
13335;SDS011;6737;51.480;11.962;2024-01-15T10:58:21;8.80;;;5.40;;
13335;SDS011;6737;51.480;11.962;2024-01-15T11:00:50;8.80;;;5.70;;
13335;SDS011;6737;51.480;11.962;2024-01-15T11:03:15;9.87;;;5.93;;
13335;SDS011;6737;51.480;11.962;2024-01-15T11:05:43;10.17;;;6.23;;
13335;SDS011;6737;51.480;11.962;2024-01-15T11:08:10;9.77;;;5.43;;
13335;SDS011;6737;51.480;11.962;2024-01-15T11:10:50;9.90;;;5.70;;
13335;SDS011;6737;51.480;11.962;2024-01-15T11:16:00;8.67;;;5.60;;
13335;SDS011;6737;51.480;11.962;2024-01-15T11:18:30;9.87;;;5.93;;
13335;SDS011;6737;51.480;11.962;2024-01-15T11:23:48;9.53;;;5.83;;
13335;SDS011;6737;51.480;11.962;2024-01-15T11:32:00;8.23;;;5.53;;
13335;SDS011;6737;51.480;11.962;2024-01-15T11:43:01;9.67;;;6.10;;
13335;SDS011;6737;51.480;11.962;2024-01-15T11:45:28;10.33;;;6.67;;
13335;SDS011;6737;51.480;11.962;2024-01-15T11:48:11;8.50;;;6.10;;
13335;SDS011;6737;51.480;11.962;2024-01-15T11:55:44;9.63;;;6.13;;
13335;SDS011;6737;51.480;11.962;2024-01-15T11:58:11;8.87;;;5.90;;
13335;SDS011;6737;51.480;11.962;2024-01-15T12:00:42;8.10;;;5.60;;
13335;SDS011;6737;51.480;11.962;2024-01-15T12:03:10;8.63;;;5.33;;
13335;SDS011;6737;51.480;11.962;2024-01-15T12:05:37;8.70;;;5.70;;
13335;SDS011;6737;51.480;11.962;2024-01-15T12:08:03;9.40;;;6.33;;
13335;SDS011;6737;51.480;11.962;2024-01-15T12:10:36;8.73;;;6.33;;
13335;SDS011;6737;51.480;11.962;2024-01-15T12:15:37;9.93;;;6.20;;
13335;SDS011;6737;51.480;11.962;2024-01-15T12:18:07;8.67;;;5.63;;
13335;SDS011;6737;51.480;11.962;2024-01-15T12:20:34;7.70;;;5.90;;
13335;SDS011;6737;51.480;11.962;2024-01-15T12:23:01;8.17;;;5.73;;
13335;SDS011;6737;51.480;11.962;2024-01-15T12:25:31;9.50;;;5.73;;
13335;SDS011;6737;51.480;11.962;2024-01-15T12:27:58;7.27;;;5.73;;
13335;SDS011;6737;51.480;11.962;2024-01-15T12:30:26;8.17;;;5.50;;
13335;SDS011;6737;51.480;11.962;2024-01-15T12:32:53;9.73;;;5.70;;
13335;SDS011;6737;51.480;11.962;2024-01-15T12:35:19;7.50;;;5.53;;
13335;SDS011;6737;51.480;11.962;2024-01-15T12:37:45;8.43;;;5.37;;
13335;SDS011;6737;51.480;11.962;2024-01-15T12:40:13;7.70;;;5.27;;
13335;SDS011;6737;51.480;11.962;2024-01-15T12:42:44;7.27;;;5.20;;
13335;SDS011;6737;51.480;11.962;2024-01-15T12:45:12;8.07;;;5.40;;
13335;SDS011;6737;51.480;11.962;2024-01-15T12:47:39;6.83;;;5.07;;
13335;SDS011;6737;51.480;11.962;2024-01-15T12:50:09;8.57;;;5.03;;
13335;SDS011;6737;51.480;11.962;2024-01-15T12:52:37;7.57;;;4.67;;
13335;SDS011;6737;51.480;11.962;2024-01-15T12:55:05;6.70;;;4.50;;
13335;SDS011;6737;51.480;11.962;2024-01-15T12:57:32;6.53;;;4.43;;
13335;SDS011;6737;51.480;11.962;2024-01-15T12:59:59;6.80;;;4.40;;
13335;SDS011;6737;51.480;11.962;2024-01-15T13:02:25;5.00;;;3.70;;
13335;SDS011;6737;51.480;11.962;2024-01-15T13:04:51;5.07;;;3.33;;
13335;SDS011;6737;51.480;11.962;2024-01-15T13:07:19;5.03;;;3.37;;
13335;SDS011;6737;51.480;11.962;2024-01-15T13:09:45;3.50;;;2.80;;
13335;SDS011;6737;51.480;11.962;2024-01-15T13:12:10;5.00;;;3.20;;
13335;SDS011;6737;51.480;11.962;2024-01-15T13:14:37;5.80;;;3.00;;
13335;SDS011;6737;51.480;11.962;2024-01-15T13:17:03;6.57;;;3.50;;
13335;SDS011;6737;51.480;11.962;2024-01-15T13:19:29;5.17;;;3.47;;
13335;SDS011;6737;51.480;11.962;2024-01-15T13:21:55;5.47;;;3.40;;
13335;SDS011;6737;51.480;11.962;2024-01-15T13:24:23;6.93;;;3.90;;
13335;SDS011;6737;51.480;11.962;2024-01-15T13:26:49;5.80;;;4.10;;
13335;SDS011;6737;51.480;11.962;2024-01-15T13:29:15;6.70;;;3.87;;
13335;SDS011;6737;51.480;11.962;2024-01-15T13:31:41;5.70;;;4.33;;
13335;SDS011;6737;51.480;11.962;2024-01-15T13:34:07;6.33;;;4.20;;
13335;SDS011;6737;51.480;11.962;2024-01-15T13:36:34;5.97;;;4.30;;
13335;SDS011;6737;51.480;11.962;2024-01-15T13:39:00;5.77;;;3.97;;
13335;SDS011;6737;51.480;11.962;2024-01-15T13:41:26;6.87;;;3.90;;
13335;SDS011;6737;51.480;11.962;2024-01-15T13:43:55;5.50;;;3.90;;
13335;SDS011;6737;51.480;11.962;2024-01-15T13:46:22;6.33;;;4.20;;
13335;SDS011;6737;51.480;11.962;2024-01-15T13:48:49;7.33;;;4.00;;
13335;SDS011;6737;51.480;11.962;2024-01-15T13:51:15;5.57;;;4.03;;
13335;SDS011;6737;51.480;11.962;2024-01-15T13:53:41;7.03;;;3.97;;
13335;SDS011;6737;51.480;11.962;2024-01-15T13:56:07;6.17;;;4.23;;
13335;SDS011;6737;51.480;11.962;2024-01-15T13:58:35;5.47;;;4.00;;
13335;SDS011;6737;51.480;11.962;2024-01-15T14:01:02;4.87;;;3.57;;
13335;SDS011;6737;51.480;11.962;2024-01-15T14:03:31;5.70;;;4.00;;
13335;SDS011;6737;51.480;11.962;2024-01-15T14:05:58;5.50;;;3.60;;
13335;SDS011;6737;51.480;11.962;2024-01-15T14:08:24;5.83;;;3.43;;
13335;SDS011;6737;51.480;11.962;2024-01-15T14:10:51;4.80;;;2.83;;
13335;SDS011;6737;51.480;11.962;2024-01-15T14:13:17;4.50;;;2.57;;
13335;SDS011;6737;51.480;11.962;2024-01-15T14:15:43;3.80;;;2.60;;
13335;SDS011;6737;51.480;11.962;2024-01-15T14:18:09;4.97;;;2.67;;
13335;SDS011;6737;51.480;11.962;2024-01-15T14:20:35;5.57;;;3.10;;
13335;SDS011;6737;51.480;11.962;2024-01-15T14:23:00;6.50;;;2.77;;
13335;SDS011;6737;51.480;11.962;2024-01-15T14:25:27;5.40;;;2.70;;
13335;SDS011;6737;51.480;11.962;2024-01-15T14:27:52;3.60;;;2.60;;
13335;SDS011;6737;51.480;11.962;2024-01-15T14:30:18;3.50;;;2.60;;
13335;SDS011;6737;51.480;11.962;2024-01-15T14:32:44;5.17;;;2.40;;
13335;SDS011;6737;51.480;11.962;2024-01-15T14:35:10;3.43;;;2.40;;
13335;SDS011;6737;51.480;11.962;2024-01-15T14:37:39;4.10;;;2.43;;
13335;SDS011;6737;51.480;11.962;2024-01-15T14:40:06;3.63;;;2.33;;
13335;SDS011;6737;51.480;11.962;2024-01-15T14:42:35;3.80;;;2.40;;
13335;SDS011;6737;51.480;11.962;2024-01-15T14:45:04;3.93;;;2.30;;
13335;SDS011;6737;51.480;11.962;2024-01-15T14:47:37;4.70;;;2.53;;
13335;SDS011;6737;51.480;11.962;2024-01-15T14:50:05;4.77;;;2.60;;
13335;SDS011;6737;51.480;11.962;2024-01-15T14:52:32;3.90;;;2.70;;
13335;SDS011;6737;51.480;11.962;2024-01-15T14:54:59;4.77;;;2.57;;
13335;SDS011;6737;51.480;11.962;2024-01-15T14:57:25;4.90;;;2.47;;
13335;SDS011;6737;51.480;11.962;2024-01-15T14:59:51;4.60;;;2.40;;
13335;SDS011;6737;51.480;11.962;2024-01-15T15:02:18;4.67;;;2.50;;